createdAt,value
2022-09-24T00:02:11.770Z,6.82
2022-09-24T00:04:38.555Z,8.30
2022-09-24T00:07:05.206Z,7.75
2022-09-24T00:09:31.789Z,11.02
2022-09-24T00:11:58.796Z,8.35
2022-09-24T00:14:25.455Z,8.10
2022-09-24T00:16:52.034Z,7.15
2022-09-24T00:19:19.103Z,8.45
2022-09-24T00:21:45.758Z,11.05
2022-09-24T00:24:34.446Z,10.02
2022-09-24T00:27:02.747Z,7.93
2022-09-24T00:29:31.875Z,9.35
2022-09-24T00:31:58.578Z,7.78
2022-09-24T00:34:25.268Z,10.18
2022-09-24T00:36:52.909Z,9.00
2022-09-24T00:39:19.492Z,9.77
2022-09-24T00:41:48.895Z,6.53
2022-09-24T00:44:55.629Z,6.68
2022-09-24T00:47:27.393Z,8.70
2022-09-24T00:49:59.430Z,9.13
2022-09-24T00:52:26.100Z,8.52
2022-09-24T00:54:53.664Z,9.18
2022-09-24T00:57:20.302Z,7.07
2022-09-24T00:59:46.948Z,8.68
2022-09-24T01:02:14.229Z,6.68
2022-09-24T01:04:40.912Z,11.23
2022-09-24T01:07:07.532Z,7.82
2022-09-24T01:09:34.218Z,5.97
2022-09-24T01:12:14.504Z,9.35
2022-09-24T01:14:56.902Z,6.30
2022-09-24T01:17:47.639Z,6.43
2022-09-24T01:20:54.121Z,7.53
2022-09-24T01:24:00.703Z,6.78
2022-09-24T01:26:53.123Z,8.32
2022-09-24T01:29:59.585Z,8.40
2022-09-24T01:32:49.521Z,7.90
2022-09-24T01:35:21.986Z,6.25
2022-09-24T01:37:54.207Z,7.43
2022-09-24T01:40:22.518Z,7.80
2022-09-24T01:42:50.867Z,8.05
2022-09-24T01:45:17.586Z,7.00
2022-09-24T01:47:45.775Z,6.70
2022-09-24T01:50:13.981Z,8.48
2022-09-24T01:52:45.460Z,7.90
2022-09-24T01:55:13.472Z,6.50
2022-09-24T01:57:43.722Z,7.07
2022-09-24T02:00:13.298Z,7.05
2022-09-24T02:02:47.980Z,7.45
2022-09-24T02:05:21.900Z,7.25
2022-09-24T02:07:58.374Z,5.97
2022-09-24T02:10:25.123Z,6.82
2022-09-24T02:12:56.195Z,6.65
2022-09-24T02:15:33.029Z,6.18
2022-09-24T02:18:02.936Z,9.43
2022-09-24T02:20:29.557Z,6.78
2022-09-24T02:22:56.446Z,7.38
2022-09-24T02:25:29.546Z,6.30
2022-09-24T02:27:56.259Z,5.80
2022-09-24T02:30:22.886Z,6.95
2022-09-24T02:32:49.489Z,6.50
2022-09-24T02:35:16.131Z,7.93
2022-09-24T02:37:43.333Z,7.20
2022-09-24T02:40:11.932Z,6.53
2022-09-24T02:42:40.933Z,8.88
2022-09-24T02:45:08.173Z,8.13
2022-09-24T02:47:34.739Z,7.22
2022-09-24T02:50:01.459Z,6.35
2022-09-24T02:52:28.147Z,11.05
2022-09-24T02:54:54.793Z,6.07
2022-09-24T02:57:21.346Z,6.22
2022-09-24T02:59:48.016Z,7.90
2022-09-24T03:02:15.301Z,6.68
2022-09-24T03:04:42.525Z,10.23
2022-09-24T03:07:10.187Z,7.00
2022-09-24T03:09:36.855Z,5.97
2022-09-24T03:12:03.905Z,9.57
2022-09-24T03:14:30.540Z,6.75
2022-09-24T03:16:57.151Z,6.18
2022-09-24T03:19:23.737Z,6.05
2022-09-24T03:21:50.325Z,6.53
2022-09-24T03:24:16.942Z,6.15
2022-09-24T03:26:43.582Z,8.40
2022-09-24T03:29:10.482Z,9.68
2022-09-24T03:31:40.948Z,7.18
2022-09-24T03:34:08.719Z,6.43
2022-09-24T03:36:35.401Z,5.60
2022-09-24T03:39:02.003Z,6.03
2022-09-24T03:41:28.753Z,8.38
2022-09-24T03:43:55.698Z,5.47
2022-09-24T03:46:24.363Z,5.60
2022-09-24T03:48:51.058Z,6.70
2022-09-24T03:51:18.760Z,7.07
2022-09-24T03:53:45.727Z,7.50
2022-09-24T03:56:12.702Z,6.28
2022-09-24T03:58:39.420Z,5.93
2022-09-24T04:01:06.910Z,6.40
2022-09-24T04:03:33.496Z,5.75
2022-09-24T04:06:00.160Z,5.82
2022-09-24T04:08:26.766Z,7.38
2022-09-24T04:10:53.438Z,6.30
2022-09-24T04:13:20.182Z,5.85
2022-09-24T04:15:48.012Z,5.82
2022-09-24T04:18:14.690Z,7.40
2022-09-24T04:20:41.874Z,5.43
2022-09-24T04:23:08.543Z,5.40
2022-09-24T04:25:35.096Z,6.18
2022-09-24T04:28:03.926Z,5.35
2022-09-24T04:30:30.941Z,7.13
2022-09-24T04:33:00.168Z,9.48
2022-09-24T04:35:27.342Z,9.02
2022-09-24T04:37:53.940Z,8.52
2022-09-24T04:40:20.564Z,5.82
2022-09-24T04:42:47.351Z,5.63
2022-09-24T04:45:16.360Z,7.25
2022-09-24T04:47:42.920Z,6.15
2022-09-24T04:50:11.293Z,5.35
2022-09-24T04:52:38.736Z,5.70
2022-09-24T04:55:05.839Z,6.78
2022-09-24T04:57:36.368Z,5.35
2022-09-24T05:00:06.032Z,6.88
2022-09-24T05:02:33.383Z,11.32
2022-09-24T05:05:00.072Z,6.47
2022-09-24T05:07:26.663Z,5.90
2022-09-24T05:09:53.326Z,6.13
2022-09-24T05:12:20.474Z,6.10
2022-09-24T05:14:47.114Z,6.75
2022-09-24T05:17:13.681Z,4.75
2022-09-24T05:19:40.398Z,4.60
2022-09-24T05:22:06.966Z,5.25
2022-09-24T05:24:33.562Z,7.10
2022-09-24T05:27:15.199Z,5.40
2022-09-24T05:29:43.359Z,4.82
2022-09-24T05:32:11.620Z,4.28
2022-09-24T05:34:38.274Z,10.90
2022-09-24T05:37:04.962Z,8.35
2022-09-24T05:39:34.133Z,7.05
2022-09-24T05:42:03.534Z,8.02
2022-09-24T05:44:31.796Z,8.65
2022-09-24T05:46:58.734Z,11.10
2022-09-24T05:49:25.401Z,12.27
2022-09-24T05:51:52.094Z,8.43
2022-09-24T05:54:19.174Z,7.43
2022-09-24T05:56:45.889Z,8.75
2022-09-24T05:59:12.962Z,8.75
2022-09-24T06:01:39.647Z,9.13
2022-09-24T06:04:09.158Z,5.65
2022-09-24T06:06:36.101Z,7.80
2022-09-24T06:09:02.769Z,7.88
2022-09-24T06:11:39.635Z,4.68
2022-09-24T06:14:07.500Z,8.27
2022-09-24T06:16:34.554Z,9.27
2022-09-24T06:19:01.469Z,4.85
2022-09-24T06:21:28.212Z,6.28
2022-09-24T06:23:54.979Z,5.72
2022-09-24T06:26:21.855Z,8.18
2022-09-24T06:28:48.459Z,6.95
2022-09-24T06:31:15.154Z,7.35
2022-09-24T06:33:42.410Z,6.38
2022-09-24T06:36:09.064Z,7.18
2022-09-24T06:38:35.806Z,5.53
2022-09-24T06:41:04.204Z,11.40
2022-09-24T06:43:31.247Z,8.65
2022-09-24T06:45:58.289Z,6.93
2022-09-24T06:48:25.018Z,9.13
2022-09-24T06:50:51.917Z,6.03
2022-09-24T06:53:18.866Z,9.73
2022-09-24T06:55:47.033Z,9.10
2022-09-24T06:58:16.766Z,5.82
2022-09-24T07:00:43.602Z,13.25
2022-09-24T07:03:17.265Z,6.60
2022-09-24T07:05:44.220Z,12.18
2022-09-24T07:08:10.864Z,8.57
2022-09-24T07:10:40.661Z,8.48
2022-09-24T07:13:07.337Z,8.52
2022-09-24T07:15:33.982Z,7.40
2022-09-24T07:18:00.689Z,10.55
2022-09-24T07:20:28.703Z,5.90
2022-09-24T07:22:55.921Z,8.85
2022-09-24T07:25:22.721Z,5.93
2022-09-24T07:27:49.554Z,4.47
2022-09-24T07:30:16.306Z,6.22
2022-09-24T07:32:43.838Z,7.15
2022-09-24T07:35:10.453Z,6.57
2022-09-24T07:37:37.229Z,7.70
2022-09-24T07:40:03.959Z,5.45
2022-09-24T07:42:30.603Z,6.55
2022-09-24T07:44:57.359Z,9.55
2022-09-24T07:47:24.023Z,10.15
2022-09-24T07:49:50.627Z,5.80
2022-09-24T07:52:17.384Z,6.25
2022-09-24T07:54:44.068Z,5.90
2022-09-24T07:57:13.628Z,7.53
2022-09-24T07:59:40.750Z,8.77
2022-09-24T08:02:15.205Z,5.53
2022-09-24T08:04:42.063Z,7.57
2022-09-24T08:07:08.762Z,10.95
2022-09-24T08:09:35.448Z,6.10
2022-09-24T08:12:02.133Z,5.57
2022-09-24T08:14:29.096Z,5.15
2022-09-24T08:16:55.924Z,6.30
2022-09-24T08:19:22.809Z,5.63
2022-09-24T08:21:49.602Z,5.75
2022-09-24T08:24:17.214Z,13.63
2022-09-24T08:26:43.869Z,5.18
2022-09-24T08:29:10.668Z,5.82
2022-09-24T08:31:37.629Z,7.70
2022-09-24T08:34:04.326Z,8.60
2022-09-24T08:36:30.934Z,6.47
2022-09-24T08:38:57.551Z,5.90
2022-09-24T08:41:44.372Z,9.00
2022-09-24T08:47:12.298Z,10.88
2022-09-24T08:49:44.699Z,8.32
2022-09-24T08:52:37.279Z,12.93
2022-09-24T08:55:08.628Z,10.38
2022-09-24T08:57:40.407Z,7.63
2022-09-24T09:00:13.207Z,13.38
2022-09-24T09:02:53.276Z,7.22
2022-09-24T09:05:57.300Z,11.02
2022-09-24T09:09:05.782Z,10.30
2022-09-24T09:11:30.567Z,10.57
2022-09-24T09:14:00.319Z,8.43
2022-09-24T09:16:29.473Z,9.52
2022-09-24T09:18:59.162Z,9.48
2022-09-24T09:21:42.275Z,6.50
2022-09-24T09:24:49.496Z,7.65
2022-09-24T09:27:17.247Z,8.13
2022-09-24T09:29:46.703Z,7.10
2022-09-24T09:32:36.486Z,7.00
2022-09-24T09:35:23.661Z,7.18
2022-09-24T09:38:12.938Z,7.57
2022-09-24T09:40:49.532Z,8.98
2022-09-24T09:43:16.198Z,7.22
2022-09-24T09:46:07.815Z,9.52
2022-09-24T09:48:45.543Z,14.80
2022-09-24T09:51:22.329Z,5.55
2022-09-24T09:53:58.346Z,6.60
2022-09-24T09:56:26.624Z,5.40
2022-09-24T09:59:14.084Z,5.65
2022-09-24T10:01:42.167Z,5.45
2022-09-24T10:04:29.187Z,6.88
2022-09-24T10:07:05.289Z,6.32
2022-09-24T10:09:32.614Z,6.00
2022-09-24T10:12:24.219Z,5.20
2022-09-24T10:15:00.263Z,9.77
2022-09-24T10:17:35.743Z,8.23
2022-09-24T10:20:03.328Z,7.43
2022-09-24T10:22:29.898Z,7.38
2022-09-24T10:24:57.403Z,7.97
2022-09-24T10:27:35.701Z,8.40
2022-09-24T10:30:32.105Z,6.18
2022-09-24T10:32:58.975Z,8.30
2022-09-24T10:35:31.338Z,5.97
2022-09-24T10:37:59.108Z,6.78
2022-09-24T10:40:29.815Z,7.15
2022-09-24T10:42:59.048Z,6.90
2022-09-24T10:45:32.112Z,7.43
2022-09-24T10:48:24.407Z,10.85
2022-09-24T10:51:02.571Z,6.13
2022-09-24T10:53:53.382Z,7.55
2022-09-24T10:59:32.855Z,10.65
2022-09-24T11:02:40.410Z,7.90
2022-09-24T11:05:22.559Z,10.93
2022-09-24T11:08:12.802Z,9.83
2022-09-24T11:13:58.773Z,19.38
2022-09-24T11:17:05.249Z,11.75
2022-09-24T11:19:58.126Z,11.93
2022-09-24T11:28:48.836Z,11.30
2022-09-24T11:31:24.828Z,8.95
2022-09-24T11:34:16.248Z,8.73
2022-09-24T11:36:51.386Z,11.10
2022-09-24T11:39:41.223Z,10.35
2022-09-24T11:42:32.066Z,16.17
2022-09-24T11:45:24.796Z,8.77
2022-09-24T11:50:47.947Z,8.80
2022-09-24T11:53:27.081Z,11.50
2022-09-24T11:55:56.967Z,9.40
2022-09-24T11:58:33.927Z,8.85
2022-09-24T12:03:47.287Z,14.77
2022-09-24T12:06:17.355Z,10.52
2022-09-24T12:08:54.741Z,16.00
2022-09-24T12:11:30.715Z,18.60
2022-09-24T12:14:17.438Z,11.85
2022-09-24T12:16:44.447Z,11.90
2022-09-24T12:19:28.313Z,11.35
2022-09-24T12:21:54.971Z,10.77
2022-09-24T12:24:33.317Z,9.90
2022-09-24T12:27:01.373Z,13.85
2022-09-24T12:33:09.657Z,11.35
2022-09-24T12:36:16.126Z,8.57
2022-09-24T12:38:50.976Z,10.13
2022-09-24T12:41:30.105Z,8.90
2022-09-24T12:46:53.971Z,8.90
2022-09-24T12:49:35.531Z,9.88
2022-09-24T12:52:05.153Z,8.70
2022-09-24T12:54:36.073Z,10.05
2022-09-24T12:57:15.372Z,9.82
2022-09-24T12:59:53.693Z,9.43
2022-09-24T13:02:23.569Z,10.95
2022-09-24T13:05:04.642Z,9.18
2022-09-24T13:10:26.772Z,11.55
2022-09-24T13:12:54.241Z,9.07
2022-09-24T13:15:28.619Z,7.68
2022-09-24T13:18:04.435Z,9.20
2022-09-24T13:20:31.356Z,13.10
2022-09-24T13:23:00.455Z,8.77
2022-09-24T13:25:27.216Z,11.95
2022-09-24T13:28:03.804Z,8.65
2022-09-24T13:30:35.891Z,8.05
2022-09-24T13:33:24.939Z,7.97
2022-09-24T13:36:11.638Z,12.55
2022-09-24T13:38:43.165Z,7.60
2022-09-24T13:44:16.005Z,7.28
2022-09-24T13:46:44.938Z,9.85
2022-09-24T13:49:18.766Z,8.18
2022-09-24T13:51:47.636Z,8.55
2022-09-24T13:54:34.767Z,7.72
2022-09-24T13:57:23.639Z,12.05
2022-09-24T13:59:50.277Z,7.03
2022-09-24T14:02:25.679Z,8.73
2022-09-24T14:04:58.183Z,10.25
2022-09-24T14:07:25.697Z,9.48
2022-09-24T14:10:05.889Z,8.60
2022-09-24T14:12:32.559Z,10.63
2022-09-24T14:14:59.799Z,8.98
2022-09-24T14:17:26.576Z,12.07
2022-09-24T14:19:56.106Z,9.18
2022-09-24T14:22:28.664Z,9.82
2022-09-24T14:25:15.168Z,11.32
2022-09-24T14:27:43.845Z,8.18
2022-09-24T14:30:20.890Z,9.48
2022-09-24T14:32:53.568Z,7.32
2022-09-24T14:38:01.465Z,8.95
2022-09-24T14:40:28.370Z,12.20
2022-09-24T14:42:58.382Z,7.57
2022-09-24T14:45:27.590Z,9.43
2022-09-24T14:48:02.301Z,7.00
2022-09-24T14:50:44.057Z,11.18
2022-09-24T14:53:21.490Z,8.07
2022-09-24T14:55:49.778Z,8.05
2022-09-24T14:58:26.343Z,9.00
2022-09-24T15:00:56.044Z,11.43
2022-09-24T15:03:36.709Z,9.73
2022-09-24T15:06:24.498Z,8.27
2022-09-24T15:08:53.678Z,10.05
2022-09-24T15:11:20.559Z,10.15
2022-09-24T15:13:57.222Z,9.25
2022-09-24T15:16:32.540Z,10.25
2022-09-24T15:21:55.494Z,10.50
2022-09-24T15:24:22.333Z,10.85
2022-09-24T15:26:59.763Z,17.58
2022-09-24T15:29:26.734Z,11.30
2022-09-24T15:31:54.091Z,11.50
2022-09-24T15:34:20.833Z,10.07
2022-09-24T15:36:48.420Z,10.57
2022-09-24T15:39:15.276Z,11.18
2022-09-24T15:41:42.352Z,12.10
2022-09-24T15:44:19.045Z,11.55
2022-09-24T15:46:48.154Z,10.73
2022-09-24T15:49:16.238Z,12.18
2022-09-24T15:51:42.828Z,15.80
2022-09-24T15:54:09.481Z,12.07
2022-09-24T15:56:36.155Z,12.68
2022-09-24T15:59:05.332Z,11.77
2022-09-24T16:01:31.982Z,21.48
2022-09-24T16:03:58.810Z,12.35
2022-09-24T16:06:25.521Z,12.20
2022-09-24T16:08:52.220Z,11.80
2022-09-24T16:11:18.789Z,11.55
2022-09-24T16:13:45.393Z,10.48
2022-09-24T16:16:12.197Z,11.65
2022-09-24T16:18:40.668Z,14.98
2022-09-24T16:21:08.053Z,15.77
2022-09-24T16:23:34.648Z,12.75
2022-09-24T16:26:01.300Z,12.52
2022-09-24T16:28:28.381Z,12.75
2022-09-24T16:30:55.262Z,13.63
2022-09-24T16:33:22.221Z,13.40
2022-09-24T16:35:48.929Z,23.38
2022-09-24T16:38:21.660Z,11.40
2022-09-24T16:40:49.718Z,11.65
2022-09-24T16:43:16.480Z,17.13
2022-09-24T16:45:43.439Z,16.05
2022-09-24T16:48:11.718Z,14.68
2022-09-24T16:50:39.170Z,15.90
2022-09-24T16:53:05.926Z,14.75
2022-09-24T16:55:32.944Z,15.20
2022-09-24T16:58:00.405Z,15.35
2022-09-24T17:00:29.662Z,17.15
2022-09-24T17:02:56.568Z,14.35
2022-09-24T17:05:23.596Z,19.30
2022-09-24T17:07:50.215Z,13.40
2022-09-24T17:10:18.079Z,16.70
2022-09-24T17:12:49.131Z,23.40
2022-09-24T17:15:19.151Z,14.15
2022-09-24T17:17:50.114Z,13.82
2022-09-24T17:20:17.901Z,21.90
2022-09-24T17:22:44.629Z,15.27
2022-09-24T17:25:11.245Z,14.98
2022-09-24T17:27:39.885Z,15.73
2022-09-24T17:30:07.295Z,14.18
2022-09-24T17:32:33.931Z,18.15
2022-09-24T17:35:00.680Z,22.00
2022-09-24T17:37:27.882Z,20.05
2022-09-24T17:39:54.468Z,17.10
2022-09-24T17:42:21.139Z,18.92
2022-09-24T17:44:50.025Z,18.33
2022-09-24T17:47:16.691Z,19.05
2022-09-24T17:49:43.441Z,16.42
2022-09-24T17:52:10.132Z,15.95
2022-09-24T17:54:36.842Z,17.77
2022-09-24T17:57:03.472Z,18.05
2022-09-24T17:59:30.128Z,21.67
2022-09-24T18:01:56.926Z,19.00
2022-09-24T18:04:26.866Z,17.48
2022-09-24T18:06:53.816Z,19.25
2022-09-24T18:09:20.741Z,21.00
2022-09-24T18:11:48.919Z,21.73
2022-09-24T18:14:17.366Z,25.23
2022-09-24T18:16:44.226Z,27.00
2022-09-24T18:19:11.912Z,25.05
2022-09-24T18:21:38.847Z,26.63
2022-09-24T18:24:05.797Z,24.65
2022-09-24T18:26:35.192Z,27.65
2022-09-24T18:29:05.685Z,23.35
2022-09-24T18:31:32.697Z,21.92
2022-09-24T18:34:04.142Z,21.92
2022-09-24T18:36:31.179Z,24.20
2022-09-24T18:38:57.971Z,29.55
2022-09-24T18:41:26.110Z,21.52
2022-09-24T18:43:53.193Z,22.05
2022-09-24T18:46:20.514Z,25.67
2022-09-24T18:48:48.526Z,21.77
2022-09-24T18:51:18.506Z,22.88
2022-09-24T18:53:45.685Z,25.73
2022-09-24T18:56:12.329Z,23.00
2022-09-24T18:58:38.925Z,25.48
2022-09-24T19:01:07.805Z,27.90
2022-09-24T19:03:34.812Z,25.27
2022-09-24T19:06:03.580Z,23.95
2022-09-24T19:08:32.008Z,32.60
2022-09-24T19:11:09.444Z,24.70
2022-09-24T19:13:37.434Z,26.48
2022-09-24T19:16:05.733Z,27.17
2022-09-24T19:18:32.851Z,29.38
2022-09-24T19:20:59.493Z,31.80
2022-09-24T19:23:26.177Z,26.77
2022-09-24T19:25:52.966Z,31.92
2022-09-24T19:28:19.706Z,29.85
2022-09-24T19:30:47.797Z,27.35
2022-09-24T19:33:16.148Z,31.33
2022-09-24T19:35:45.694Z,29.27
2022-09-24T19:38:16.509Z,31.52
2022-09-24T19:40:43.387Z,29.50
2022-09-24T19:43:10.007Z,29.02
2022-09-24T19:45:37.165Z,38.20
2022-09-24T19:48:03.939Z,35.83
2022-09-24T19:50:34.244Z,32.55
2022-09-24T19:53:00.909Z,33.30
2022-09-24T19:55:28.864Z,33.97
2022-09-24T19:57:56.323Z,30.52
2022-09-24T20:00:25.070Z,35.65
2022-09-24T20:02:52.322Z,41.45
2022-09-24T20:05:18.987Z,36.13
2022-09-24T20:07:46.418Z,36.70
2022-09-24T20:10:13.113Z,32.75
2022-09-24T20:12:41.749Z,33.55
2022-09-24T20:15:09.961Z,39.10
2022-09-24T20:17:36.729Z,30.27
2022-09-24T20:20:04.121Z,28.80
2022-09-24T20:22:33.241Z,32.00
2022-09-24T20:24:59.910Z,32.88
2022-09-24T20:27:46.585Z,37.05
2022-09-24T20:30:13.417Z,29.60
2022-09-24T20:32:44.147Z,30.17
2022-09-24T20:35:11.603Z,30.92
2022-09-24T20:37:38.316Z,37.78
2022-09-24T20:40:06.587Z,32.83
2022-09-24T20:42:33.230Z,32.53
2022-09-24T20:45:05.271Z,32.38
2022-09-24T20:47:32.793Z,33.35
2022-09-24T20:49:59.509Z,32.85
2022-09-24T20:52:26.180Z,33.25
2022-09-24T20:54:53.074Z,34.70
2022-09-24T20:57:19.798Z,33.28
2022-09-24T20:59:46.517Z,28.88
2022-09-24T21:02:13.247Z,25.58
2022-09-24T21:04:40.122Z,32.92
2022-09-24T21:07:06.716Z,27.33
2022-09-24T21:09:33.407Z,26.00
2022-09-24T21:12:03.383Z,22.65
2022-09-24T21:14:30.001Z,26.65
2022-09-24T21:16:56.683Z,27.35
2022-09-24T21:19:24.209Z,24.70
2022-09-24T21:21:52.139Z,22.55
2022-09-24T21:24:19.132Z,23.42
2022-09-24T21:26:45.974Z,25.10
2022-09-24T21:29:16.595Z,24.35
2022-09-24T21:31:45.912Z,23.23
2022-09-24T21:34:20.644Z,24.20
2022-09-24T21:36:47.514Z,22.98
2022-09-24T21:39:19.037Z,23.13
2022-09-24T21:41:48.109Z,22.13
2022-09-24T21:44:14.945Z,21.42
2022-09-24T21:46:43.698Z,17.48
2022-09-24T21:49:10.983Z,20.35
2022-09-24T21:51:38.117Z,19.25
2022-09-24T21:54:08.576Z,16.95
2022-09-24T21:56:35.587Z,18.50
2022-09-24T21:59:22.479Z,18.30
2022-09-24T22:01:49.396Z,22.33
2022-09-24T22:04:16.682Z,21.35
2022-09-24T22:06:43.376Z,20.63
2022-09-24T22:09:10.283Z,19.13
2022-09-24T22:11:37.761Z,18.27
2022-09-24T22:14:04.598Z,21.67
2022-09-24T22:16:33.180Z,18.00
2022-09-24T22:19:00.638Z,17.48
2022-09-24T22:21:27.457Z,23.65
2022-09-24T22:23:54.935Z,23.35
2022-09-24T22:26:21.749Z,20.75
2022-09-24T22:28:48.614Z,19.20
2022-09-24T22:31:16.352Z,19.75
2022-09-24T22:34:03.270Z,15.68
2022-09-24T22:36:31.364Z,19.38
2022-09-24T22:38:59.627Z,15.38
2022-09-24T22:41:28.579Z,14.60
2022-09-24T22:43:56.868Z,20.83
2022-09-24T22:46:26.930Z,15.93
2022-09-24T22:48:54.490Z,14.88
2022-09-24T22:51:21.362Z,17.73
2022-09-24T22:53:48.143Z,15.45
2022-09-24T22:56:17.092Z,15.80
2022-09-24T22:58:44.965Z,15.18
2022-09-24T23:01:15.053Z,20.85
2022-09-24T23:03:42.032Z,17.77
2022-09-24T23:06:09.002Z,14.80
2022-09-24T23:08:36.501Z,13.23
2022-09-24T23:11:11.534Z,12.20
2022-09-24T23:13:38.837Z,12.80
2022-09-24T23:16:14.743Z,14.65
2022-09-24T23:18:42.315Z,16.35
2022-09-24T23:21:10.649Z,12.93
2022-09-24T23:23:37.691Z,17.25
2022-09-24T23:26:07.003Z,19.60
2022-09-24T23:28:34.902Z,20.40
2022-09-24T23:31:02.413Z,19.50
2022-09-24T23:33:31.920Z,16.13
2022-09-24T23:35:58.527Z,23.65
2022-09-24T23:38:25.099Z,14.95
2022-09-24T23:40:51.798Z,16.70
2022-09-24T23:43:18.938Z,12.82
2022-09-24T23:45:46.384Z,14.32
2022-09-24T23:48:13.516Z,15.80
2022-09-24T23:50:40.232Z,13.85
2022-09-24T23:53:06.858Z,11.65
2022-09-24T23:55:33.551Z,11.60
2022-09-24T23:58:00.252Z,15.57
